Camira — 2HNF6 — position and weather

sailwx.info

Track history (hours):
 
Tides and Currents Weather Stations Pressure Air Temp Water Temp Dewpoint Dewpoint Depression Visibility Wind Speed Wind Dir Waves Ship Positions

Camira

Last reported at 2017-Sep-25 07:48 UTC. Time now 2017-Oct-17 01:20 UTC.
Position N 37°46' E 023°28'.
Warning: this ship's position is 21 days out of date.

Type: Pleasure craft. MMSI: 235105038.

Date/timePositionNaut miles runAvg speedWind from/ knotsBaromVisibWave heightAir tempDewpointWater temp
2017-Sep-25 07:48N 37°46' E 023°28'1 3.6
2017-Sep-25 07:30N 37°47' E 023°29'1 0.0
2017-Sep-24 14:44N 37°46' E 023°29'0 0.0
2017-Sep-24 14:20N 37°46' E 023°29'0 0.0
2017-Sep-24 14:00N 37°46' E 023°29'3 5.0
2017-Sep-24 13:30N 37°46' E 023°26'  
2017-Sep-20 09:55N 37°56' E 023°39'0 0.0
2017-Sep-20 09:28N 37°56' E 023°39'1 2.1
2017-Sep-20 09:00N 37°55' E 023°38'3 5.6
2017-Sep-20 08:31N 37°53' E 023°36'3 5.0
2017-Sep-20 08:00N 37°52' E 023°33'2 4.9
2017-Sep-20 07:30N 37°50' E 023°31'3 5.5
2017-Sep-20 06:57N 37°48' E 023°28'  
Track history (hours):
 
Tides and Currents Weather Stations Pressure Air Temp Water Temp Dewpoint Dewpoint Depression Visibility Wind Speed Wind Dir Waves Ship Positions

Camira

Last reported at 2017-Sep-25 07:48 UTC. Time now 2017-Oct-17 01:20 UTC.
Position N 37°46' E 023°28'.
Warning: this ship's position is 21 days out of date.

Type: Pleasure craft. MMSI: 235105038.

Date/timePositionNaut miles runAvg speedWind from/ knotsBaromVisibWave heightAir tempDewpointWater temp
2017-Sep-25 07:48N 37°46' E 023°28'1 3.6
2017-Sep-25 07:30N 37°47' E 023°29'1 0.0
2017-Sep-24 14:44N 37°46' E 023°29'0 0.0
2017-Sep-24 14:20N 37°46' E 023°29'0 0.0
2017-Sep-24 14:00N 37°46' E 023°29'3 5.0
2017-Sep-24 13:30N 37°46' E 023°26'  
2017-Sep-20 09:55N 37°56' E 023°39'0 0.0
2017-Sep-20 09:28N 37°56' E 023°39'1 2.1
2017-Sep-20 09:00N 37°55' E 023°38'3 5.6
2017-Sep-20 08:31N 37°53' E 023°36'3 5.0
2017-Sep-20 08:00N 37°52' E 023°33'2 4.9
2017-Sep-20 07:30N 37°50' E 023°31'3 5.5
2017-Sep-20 06:57N 37°48' E 023°28'  

Dump ship's entire track history